sensor_id;sensor_type;location;lat;lon;timestamp;P1;durP1;ratioP1;P2;durP2;ratioP2
147;SDS011;142;50.652;12.216;2022-10-31T00:00:13;0.20;;;0.10;;
147;SDS011;142;50.652;12.216;2022-10-31T00:02:40;0.30;;;0.20;;
147;SDS011;142;50.652;12.216;2022-10-31T00:05:09;0.30;;;0.20;;
147;SDS011;142;50.652;12.216;2022-10-31T00:07:37;0.30;;;0.20;;
147;SDS011;142;50.652;12.216;2022-10-31T00:10:04;0.20;;;0.10;;
147;SDS011;142;50.652;12.216;2022-10-31T00:12:34;0.30;;;0.20;;
147;SDS011;142;50.652;12.216;2022-10-31T00:15:01;0.20;;;0.10;;
147;SDS011;142;50.652;12.216;2022-10-31T00:17:28;0.20;;;0.10;;
147;SDS011;142;50.652;12.216;2022-10-31T00:19:56;0.30;;;0.20;;
147;SDS011;142;50.652;12.216;2022-10-31T00:22:23;0.30;;;0.20;;
147;SDS011;142;50.652;12.216;2022-10-31T00:24:51;0.20;;;0.10;;
147;SDS011;142;50.652;12.216;2022-10-31T00:27:18;0.20;;;0.10;;
147;SDS011;142;50.652;12.216;2022-10-31T00:29:47;0.30;;;0.20;;
147;SDS011;142;50.652;12.216;2022-10-31T00:32:14;0.27;;;0.17;;
147;SDS011;142;50.652;12.216;2022-10-31T00:34:41;0.20;;;0.10;;
147;SDS011;142;50.652;12.216;2022-10-31T00:37:08;0.20;;;0.10;;
147;SDS011;142;50.652;12.216;2022-10-31T00:39:35;0.27;;;0.17;;
147;SDS011;142;50.652;12.216;2022-10-31T00:42:03;0.30;;;0.20;;
147;SDS011;142;50.652;12.216;2022-10-31T00:44:30;0.30;;;0.20;;
147;SDS011;142;50.652;12.216;2022-10-31T00:46:58;0.20;;;0.10;;
147;SDS011;142;50.652;12.216;2022-10-31T00:49:25;0.27;;;0.17;;
147;SDS011;142;50.652;12.216;2022-10-31T00:51:52;0.20;;;0.10;;
147;SDS011;142;50.652;12.216;2022-10-31T00:54:19;0.20;;;0.10;;
147;SDS011;142;50.652;12.216;2022-10-31T00:56:46;0.30;;;0.20;;
147;SDS011;142;50.652;12.216;2022-10-31T00:59:13;0.20;;;0.10;;
147;SDS011;142;50.652;12.216;2022-10-31T01:01:41;0.20;;;0.10;;
147;SDS011;142;50.652;12.216;2022-10-31T01:04:09;0.30;;;0.20;;
147;SDS011;142;50.652;12.216;2022-10-31T01:06:36;0.30;;;0.20;;
147;SDS011;142;50.652;12.216;2022-10-31T01:09:03;0.23;;;0.13;;
147;SDS011;142;50.652;12.216;2022-10-31T01:11:30;0.40;;;0.30;;
147;SDS011;142;50.652;12.216;2022-10-31T01:13:57;0.30;;;0.20;;
147;SDS011;142;50.652;12.216;2022-10-31T01:16:25;0.20;;;0.10;;
147;SDS011;142;50.652;12.216;2022-10-31T01:18:54;0.30;;;0.20;;
147;SDS011;142;50.652;12.216;2022-10-31T01:21:23;0.30;;;0.20;;
147;SDS011;142;50.652;12.216;2022-10-31T01:23:52;0.20;;;0.10;;
147;SDS011;142;50.652;12.216;2022-10-31T01:26:20;0.20;;;0.10;;
147;SDS011;142;50.652;12.216;2022-10-31T01:28:49;0.20;;;0.10;;
147;SDS011;142;50.652;12.216;2022-10-31T01:31:19;0.27;;;0.17;;
147;SDS011;142;50.652;12.216;2022-10-31T01:33:48;0.30;;;0.20;;
147;SDS011;142;50.652;12.216;2022-10-31T01:36:16;0.20;;;0.10;;
147;SDS011;142;50.652;12.216;2022-10-31T01:38:46;0.20;;;0.10;;
147;SDS011;142;50.652;12.216;2022-10-31T01:41:15;0.20;;;0.10;;
147;SDS011;142;50.652;12.216;2022-10-31T01:43:45;0.20;;;0.10;;
147;SDS011;142;50.652;12.216;2022-10-31T01:46:15;0.30;;;0.20;;
147;SDS011;142;50.652;12.216;2022-10-31T01:48:45;0.30;;;0.20;;
147;SDS011;142;50.652;12.216;2022-10-31T01:51:13;0.30;;;0.20;;
147;SDS011;142;50.652;12.216;2022-10-31T01:53:42;0.23;;;0.13;;
147;SDS011;142;50.652;12.216;2022-10-31T01:56:13;0.30;;;0.20;;
147;SDS011;142;50.652;12.216;2022-10-31T01:58:42;0.20;;;0.10;;
147;SDS011;142;50.652;12.216;2022-10-31T02:01:12;0.30;;;0.20;;
147;SDS011;142;50.652;12.216;2022-10-31T02:03:42;0.30;;;0.20;;
147;SDS011;142;50.652;12.216;2022-10-31T02:06:10;0.30;;;0.20;;
147;SDS011;142;50.652;12.216;2022-10-31T02:08:45;0.30;;;0.20;;
147;SDS011;142;50.652;12.216;2022-10-31T02:11:14;0.30;;;0.20;;
147;SDS011;142;50.652;12.216;2022-10-31T02:13:41;0.20;;;0.10;;
147;SDS011;142;50.652;12.216;2022-10-31T02:16:08;0.30;;;0.20;;
147;SDS011;142;50.652;12.216;2022-10-31T02:18:36;0.30;;;0.20;;
147;SDS011;142;50.652;12.216;2022-10-31T02:21:05;0.30;;;0.20;;
147;SDS011;142;50.652;12.216;2022-10-31T02:24:00;0.30;;;0.20;;
147;SDS011;142;50.652;12.216;2022-10-31T02:26:59;0.00;;;0.00;;
147;SDS011;142;50.652;12.216;2022-10-31T02:29:48;0.20;;;0.10;;
147;SDS011;142;50.652;12.216;2022-10-31T02:32:29;0.20;;;0.10;;
147;SDS011;142;50.652;12.216;2022-10-31T02:35:07;0.20;;;0.10;;
147;SDS011;142;50.652;12.216;2022-10-31T02:37:41;0.20;;;0.10;;
147;SDS011;142;50.652;12.216;2022-10-31T02:40:17;0.27;;;0.17;;
147;SDS011;142;50.652;12.216;2022-10-31T02:42:49;0.20;;;0.10;;
147;SDS011;142;50.652;12.216;2022-10-31T02:45:24;0.27;;;0.17;;
147;SDS011;142;50.652;12.216;2022-10-31T02:47:58;0.40;;;0.30;;
147;SDS011;142;50.652;12.216;2022-10-31T02:50:29;0.40;;;0.30;;
147;SDS011;142;50.652;12.216;2022-10-31T02:52:58;0.20;;;0.10;;
147;SDS011;142;50.652;12.216;2022-10-31T02:55:47;0.20;;;0.10;;
147;SDS011;142;50.652;12.216;2022-10-31T02:58:19;0.30;;;0.20;;
147;SDS011;142;50.652;12.216;2022-10-31T03:00:51;0.40;;;0.30;;
147;SDS011;142;50.652;12.216;2022-10-31T03:03:36;0.20;;;0.10;;
147;SDS011;142;50.652;12.216;2022-10-31T03:06:12;0.30;;;0.20;;
147;SDS011;142;50.652;12.216;2022-10-31T03:08:45;0.30;;;0.20;;
147;SDS011;142;50.652;12.216;2022-10-31T03:11:21;0.30;;;0.20;;
147;SDS011;142;50.652;12.216;2022-10-31T03:13:56;0.30;;;0.20;;
147;SDS011;142;50.652;12.216;2022-10-31T03:16:28;0.37;;;0.27;;
147;SDS011;142;50.652;12.216;2022-10-31T03:19:03;0.20;;;0.10;;
147;SDS011;142;50.652;12.216;2022-10-31T03:21:35;0.30;;;0.20;;
147;SDS011;142;50.652;12.216;2022-10-31T03:24:08;0.30;;;0.20;;
147;SDS011;142;50.652;12.216;2022-10-31T03:26:38;0.30;;;0.20;;
147;SDS011;142;50.652;12.216;2022-10-31T03:29:10;0.30;;;0.20;;
147;SDS011;142;50.652;12.216;2022-10-31T03:31:42;0.30;;;0.20;;
147;SDS011;142;50.652;12.216;2022-10-31T03:34:15;0.20;;;0.10;;
147;SDS011;142;50.652;12.216;2022-10-31T03:36:45;0.20;;;0.10;;
147;SDS011;142;50.652;12.216;2022-10-31T03:39:15;0.27;;;0.17;;
147;SDS011;142;50.652;12.216;2022-10-31T03:41:46;0.30;;;0.20;;
147;SDS011;142;50.652;12.216;2022-10-31T03:44:17;0.20;;;0.10;;
147;SDS011;142;50.652;12.216;2022-10-31T03:46:47;0.30;;;0.20;;
147;SDS011;142;50.652;12.216;2022-10-31T03:49:16;0.20;;;0.10;;
147;SDS011;142;50.652;12.216;2022-10-31T03:51:44;0.30;;;0.20;;
147;SDS011;142;50.652;12.216;2022-10-31T03:54:17;0.20;;;0.10;;
147;SDS011;142;50.652;12.216;2022-10-31T03:56:52;0.20;;;0.10;;
147;SDS011;142;50.652;12.216;2022-10-31T03:59:24;0.20;;;0.10;;
147;SDS011;142;50.652;12.216;2022-10-31T04:01:56;0.20;;;0.10;;
147;SDS011;142;50.652;12.216;2022-10-31T04:04:28;0.30;;;0.20;;
147;SDS011;142;50.652;12.216;2022-10-31T04:06:56;0.20;;;0.10;;
147;SDS011;142;50.652;12.216;2022-10-31T04:09:26;0.30;;;0.20;;
147;SDS011;142;50.652;12.216;2022-10-31T04:11:56;0.30;;;0.20;;
147;SDS011;142;50.652;12.216;2022-10-31T04:14:27;0.30;;;0.20;;
147;SDS011;142;50.652;12.216;2022-10-31T04:16:56;0.20;;;0.10;;
147;SDS011;142;50.652;12.216;2022-10-31T04:19:24;0.20;;;0.10;;
147;SDS011;142;50.652;12.216;2022-10-31T04:21:52;0.23;;;0.13;;
147;SDS011;142;50.652;12.216;2022-10-31T04:24:19;0.30;;;0.20;;
147;SDS011;142;50.652;12.216;2022-10-31T04:26:46;0.20;;;0.10;;
147;SDS011;142;50.652;12.216;2022-10-31T04:29:13;0.20;;;0.10;;
147;SDS011;142;50.652;12.216;2022-10-31T04:31:40;0.20;;;0.10;;
147;SDS011;142;50.652;12.216;2022-10-31T04:34:07;0.20;;;0.10;;
147;SDS011;142;50.652;12.216;2022-10-31T04:36:34;0.30;;;0.20;;
147;SDS011;142;50.652;12.216;2022-10-31T04:39:03;0.20;;;0.10;;
147;SDS011;142;50.652;12.216;2022-10-31T04:41:30;0.30;;;0.20;;
147;SDS011;142;50.652;12.216;2022-10-31T04:43:57;0.20;;;0.10;;
147;SDS011;142;50.652;12.216;2022-10-31T04:46:24;0.20;;;0.10;;
147;SDS011;142;50.652;12.216;2022-10-31T04:48:50;0.20;;;0.10;;
147;SDS011;142;50.652;12.216;2022-10-31T04:51:17;0.20;;;0.10;;
147;SDS011;142;50.652;12.216;2022-10-31T04:53:45;0.20;;;0.10;;
147;SDS011;142;50.652;12.216;2022-10-31T04:56:13;0.20;;;0.10;;
147;SDS011;142;50.652;12.216;2022-10-31T04:58:40;0.30;;;0.20;;
147;SDS011;142;50.652;12.216;2022-10-31T05:01:07;0.30;;;0.20;;
147;SDS011;142;50.652;12.216;2022-10-31T05:03:34;0.20;;;0.10;;
147;SDS011;142;50.652;12.216;2022-10-31T05:06:01;0.20;;;0.10;;
147;SDS011;142;50.652;12.216;2022-10-31T05:08:28;0.30;;;0.20;;
147;SDS011;142;50.652;12.216;2022-10-31T05:10:55;0.20;;;0.10;;
147;SDS011;142;50.652;12.216;2022-10-31T05:13:27;0.30;;;0.20;;
147;SDS011;142;50.652;12.216;2022-10-31T05:15:55;0.40;;;0.30;;
147;SDS011;142;50.652;12.216;2022-10-31T05:18:22;0.30;;;0.20;;
147;SDS011;142;50.652;12.216;2022-10-31T05:20:49;0.20;;;0.10;;
147;SDS011;142;50.652;12.216;2022-10-31T05:23:16;0.30;;;0.20;;
147;SDS011;142;50.652;12.216;2022-10-31T05:25:43;0.30;;;0.20;;
147;SDS011;142;50.652;12.216;2022-10-31T05:28:10;0.20;;;0.10;;
147;SDS011;142;50.652;12.216;2022-10-31T05:30:39;0.20;;;0.10;;
147;SDS011;142;50.652;12.216;2022-10-31T05:33:06;0.20;;;0.10;;
147;SDS011;142;50.652;12.216;2022-10-31T05:35:33;0.20;;;0.10;;
147;SDS011;142;50.652;12.216;2022-10-31T05:38:00;0.30;;;0.20;;
147;SDS011;142;50.652;12.216;2022-10-31T05:40:28;0.20;;;0.10;;
147;SDS011;142;50.652;12.216;2022-10-31T05:42:55;0.20;;;0.10;;
147;SDS011;142;50.652;12.216;2022-10-31T05:45:24;0.20;;;0.10;;
147;SDS011;142;50.652;12.216;2022-10-31T05:47:53;0.20;;;0.10;;
147;SDS011;142;50.652;12.216;2022-10-31T05:50:21;0.30;;;0.20;;
147;SDS011;142;50.652;12.216;2022-10-31T05:52:54;0.30;;;0.20;;
147;SDS011;142;50.652;12.216;2022-10-31T05:55:22;0.27;;;0.17;;
147;SDS011;142;50.652;12.216;2022-10-31T05:57:50;0.23;;;0.13;;
147;SDS011;142;50.652;12.216;2022-10-31T06:00:18;0.20;;;0.10;;
147;SDS011;142;50.652;12.216;2022-10-31T06:02:45;0.23;;;0.13;;
147;SDS011;142;50.652;12.216;2022-10-31T06:05:14;0.20;;;0.10;;
147;SDS011;142;50.652;12.216;2022-10-31T06:07:42;0.30;;;0.20;;
147;SDS011;142;50.652;12.216;2022-10-31T06:10:09;0.30;;;0.20;;
147;SDS011;142;50.652;12.216;2022-10-31T06:12:36;0.20;;;0.10;;
147;SDS011;142;50.652;12.216;2022-10-31T06:15:06;0.20;;;0.10;;
147;SDS011;142;50.652;12.216;2022-10-31T06:17:34;0.20;;;0.10;;
147;SDS011;142;50.652;12.216;2022-10-31T06:20:02;0.20;;;0.10;;
147;SDS011;142;50.652;12.216;2022-10-31T06:22:32;0.30;;;0.20;;
147;SDS011;142;50.652;12.216;2022-10-31T06:24:59;0.20;;;0.10;;
147;SDS011;142;50.652;12.216;2022-10-31T06:27:26;0.30;;;0.20;;
147;SDS011;142;50.652;12.216;2022-10-31T06:29:53;0.20;;;0.10;;
147;SDS011;142;50.652;12.216;2022-10-31T06:32:20;0.20;;;0.10;;
147;SDS011;142;50.652;12.216;2022-10-31T06:34:48;0.30;;;0.20;;
147;SDS011;142;50.652;12.216;2022-10-31T06:37:15;0.20;;;0.10;;
147;SDS011;142;50.652;12.216;2022-10-31T06:39:43;0.30;;;0.20;;
147;SDS011;142;50.652;12.216;2022-10-31T06:42:10;0.27;;;0.17;;
147;SDS011;142;50.652;12.216;2022-10-31T06:44:37;0.20;;;0.10;;
147;SDS011;142;50.652;12.216;2022-10-31T06:47:05;0.00;;;0.00;;
147;SDS011;142;50.652;12.216;2022-10-31T06:49:32;0.30;;;0.20;;
147;SDS011;142;50.652;12.216;2022-10-31T06:51:59;0.20;;;0.10;;
147;SDS011;142;50.652;12.216;2022-10-31T06:54:27;0.27;;;0.17;;
147;SDS011;142;50.652;12.216;2022-10-31T06:56:55;0.20;;;0.10;;
147;SDS011;142;50.652;12.216;2022-10-31T06:59:22;0.20;;;0.10;;
147;SDS011;142;50.652;12.216;2022-10-31T07:01:50;0.20;;;0.10;;
147;SDS011;142;50.652;12.216;2022-10-31T07:04:17;0.30;;;0.20;;
147;SDS011;142;50.652;12.216;2022-10-31T07:06:50;0.20;;;0.10;;
147;SDS011;142;50.652;12.216;2022-10-31T07:09:17;0.30;;;0.20;;
147;SDS011;142;50.652;12.216;2022-10-31T07:11:46;0.30;;;0.20;;
147;SDS011;142;50.652;12.216;2022-10-31T07:14:15;0.30;;;0.20;;
147;SDS011;142;50.652;12.216;2022-10-31T07:16:47;0.20;;;0.10;;
147;SDS011;142;50.652;12.216;2022-10-31T07:19:16;0.20;;;0.10;;
147;SDS011;142;50.652;12.216;2022-10-31T07:21:43;0.30;;;0.20;;
147;SDS011;142;50.652;12.216;2022-10-31T07:24:10;0.33;;;0.23;;
147;SDS011;142;50.652;12.216;2022-10-31T07:26:37;0.30;;;0.20;;
147;SDS011;142;50.652;12.216;2022-10-31T07:29:04;0.23;;;0.13;;
147;SDS011;142;50.652;12.216;2022-10-31T07:31:33;0.20;;;0.10;;
147;SDS011;142;50.652;12.216;2022-10-31T07:33:59;0.37;;;0.27;;
147;SDS011;142;50.652;12.216;2022-10-31T07:36:26;0.30;;;0.20;;
147;SDS011;142;50.652;12.216;2022-10-31T07:38:53;0.20;;;0.10;;
147;SDS011;142;50.652;12.216;2022-10-31T07:41:23;0.30;;;0.20;;
147;SDS011;142;50.652;12.216;2022-10-31T07:43:50;0.20;;;0.10;;
147;SDS011;142;50.652;12.216;2022-10-31T07:46:17;0.20;;;0.10;;
147;SDS011;142;50.652;12.216;2022-10-31T07:48:45;0.30;;;0.20;;
147;SDS011;142;50.652;12.216;2022-10-31T07:51:13;0.40;;;0.30;;
147;SDS011;142;50.652;12.216;2022-10-31T07:53:40;0.23;;;0.13;;
147;SDS011;142;50.652;12.216;2022-10-31T07:56:07;0.20;;;0.10;;
147;SDS011;142;50.652;12.216;2022-10-31T07:58:35;0.30;;;0.20;;
147;SDS011;142;50.652;12.216;2022-10-31T08:01:03;0.40;;;0.30;;
147;SDS011;142;50.652;12.216;2022-10-31T08:03:30;0.20;;;0.10;;
147;SDS011;142;50.652;12.216;2022-10-31T08:05:58;0.30;;;0.20;;
147;SDS011;142;50.652;12.216;2022-10-31T08:08:26;0.30;;;0.20;;
147;SDS011;142;50.652;12.216;2022-10-31T08:10:54;0.20;;;0.10;;
147;SDS011;142;50.652;12.216;2022-10-31T08:13:21;0.30;;;0.20;;
147;SDS011;142;50.652;12.216;2022-10-31T08:15:48;0.20;;;0.10;;
147;SDS011;142;50.652;12.216;2022-10-31T08:18:17;0.20;;;0.10;;
147;SDS011;142;50.652;12.216;2022-10-31T08:20:44;0.20;;;0.10;;
147;SDS011;142;50.652;12.216;2022-10-31T08:23:12;0.20;;;0.10;;
147;SDS011;142;50.652;12.216;2022-10-31T08:25:41;0.30;;;0.20;;
147;SDS011;142;50.652;12.216;2022-10-31T08:28:09;0.20;;;0.10;;
147;SDS011;142;50.652;12.216;2022-10-31T08:30:37;0.23;;;0.13;;
147;SDS011;142;50.652;12.216;2022-10-31T08:33:05;0.30;;;0.20;;
147;SDS011;142;50.652;12.216;2022-10-31T08:35:35;0.30;;;0.20;;
147;SDS011;142;50.652;12.216;2022-10-31T08:38:03;0.20;;;0.10;;
147;SDS011;142;50.652;12.216;2022-10-31T08:40:32;0.40;;;0.30;;
147;SDS011;142;50.652;12.216;2022-10-31T08:43:00;0.40;;;0.30;;
147;SDS011;142;50.652;12.216;2022-10-31T08:45:29;0.30;;;0.20;;
147;SDS011;142;50.652;12.216;2022-10-31T08:47:58;0.20;;;0.10;;
147;SDS011;142;50.652;12.216;2022-10-31T08:50:26;0.27;;;0.17;;
147;SDS011;142;50.652;12.216;2022-10-31T08:52:59;0.20;;;0.10;;
147;SDS011;142;50.652;12.216;2022-10-31T08:55:27;0.20;;;0.10;;
147;SDS011;142;50.652;12.216;2022-10-31T08:57:56;0.30;;;0.20;;
147;SDS011;142;50.652;12.216;2022-10-31T09:00:23;0.30;;;0.20;;
147;SDS011;142;50.652;12.216;2022-10-31T09:02:55;0.30;;;0.20;;
147;SDS011;142;50.652;12.216;2022-10-31T09:05:23;0.33;;;0.23;;
147;SDS011;142;50.652;12.216;2022-10-31T09:07:54;0.20;;;0.10;;
147;SDS011;142;50.652;12.216;2022-10-31T09:10:23;0.20;;;0.10;;
147;SDS011;142;50.652;12.216;2022-10-31T09:12:55;0.20;;;0.10;;
147;SDS011;142;50.652;12.216;2022-10-31T09:15:23;0.20;;;0.10;;
147;SDS011;142;50.652;12.216;2022-10-31T09:17:50;0.20;;;0.10;;
147;SDS011;142;50.652;12.216;2022-10-31T09:20:17;0.20;;;0.10;;
147;SDS011;142;50.652;12.216;2022-10-31T09:22:45;0.30;;;0.20;;
147;SDS011;142;50.652;12.216;2022-10-31T09:25:12;0.20;;;0.10;;
147;SDS011;142;50.652;12.216;2022-10-31T09:27:39;0.20;;;0.10;;
147;SDS011;142;50.652;12.216;2022-10-31T09:30:08;0.07;;;0.03;;
147;SDS011;142;50.652;12.216;2022-10-31T09:32:38;0.20;;;0.10;;
147;SDS011;142;50.652;12.216;2022-10-31T09:35:05;0.30;;;0.20;;
147;SDS011;142;50.652;12.216;2022-10-31T09:37:34;0.27;;;0.17;;
147;SDS011;142;50.652;12.216;2022-10-31T09:40:02;0.20;;;0.10;;
147;SDS011;142;50.652;12.216;2022-10-31T09:42:34;0.20;;;0.10;;
147;SDS011;142;50.652;12.216;2022-10-31T09:45:17;0.27;;;0.17;;
147;SDS011;142;50.652;12.216;2022-10-31T09:48:01;0.20;;;0.10;;
147;SDS011;142;50.652;12.216;2022-10-31T09:50:41;0.00;;;0.00;;
147;SDS011;142;50.652;12.216;2022-10-31T09:53:15;0.20;;;0.10;;
147;SDS011;142;50.652;12.216;2022-10-31T09:55:50;0.00;;;0.00;;
147;SDS011;142;50.652;12.216;2022-10-31T09:58:19;0.00;;;0.00;;
147;SDS011;142;50.652;12.216;2022-10-31T10:00:52;0.20;;;0.10;;
147;SDS011;142;50.652;12.216;2022-10-31T10:03:31;0.00;;;0.00;;
147;SDS011;142;50.652;12.216;2022-10-31T10:06:06;0.20;;;0.10;;
147;SDS011;142;50.652;12.216;2022-10-31T10:08:39;0.20;;;0.10;;
147;SDS011;142;50.652;12.216;2022-10-31T10:11:12;0.00;;;0.00;;
147;SDS011;142;50.652;12.216;2022-10-31T10:13:53;0.00;;;0.00;;
147;SDS011;142;50.652;12.216;2022-10-31T10:16:38;0.00;;;0.00;;
147;SDS011;142;50.652;12.216;2022-10-31T10:19:18;0.00;;;0.00;;
147;SDS011;142;50.652;12.216;2022-10-31T10:21:56;0.20;;;0.10;;
147;SDS011;142;50.652;12.216;2022-10-31T10:24:32;0.00;;;0.00;;
147;SDS011;142;50.652;12.216;2022-10-31T10:27:11;0.07;;;0.03;;
147;SDS011;142;50.652;12.216;2022-10-31T10:29:49;0.00;;;0.00;;
147;SDS011;142;50.652;12.216;2022-10-31T10:32:24;0.20;;;0.10;;
147;SDS011;142;50.652;12.216;2022-10-31T10:34:54;0.20;;;0.10;;
147;SDS011;142;50.652;12.216;2022-10-31T10:37:28;0.20;;;0.10;;
147;SDS011;142;50.652;12.216;2022-10-31T10:40:05;0.00;;;0.00;;
147;SDS011;142;50.652;12.216;2022-10-31T10:42:35;0.00;;;0.00;;
147;SDS011;142;50.652;12.216;2022-10-31T10:45:22;0.00;;;0.00;;
147;SDS011;142;50.652;12.216;2022-10-31T10:48:12;0.20;;;0.10;;
147;SDS011;142;50.652;12.216;2022-10-31T10:50:44;0.00;;;0.00;;
147;SDS011;142;50.652;12.216;2022-10-31T10:53:25;0.00;;;0.00;;
147;SDS011;142;50.652;12.216;2022-10-31T10:56:02;0.00;;;0.00;;
147;SDS011;142;50.652;12.216;2022-10-31T10:58:38;0.00;;;0.00;;
147;SDS011;142;50.652;12.216;2022-10-31T11:01:10;0.00;;;0.00;;
147;SDS011;142;50.652;12.216;2022-10-31T11:03:42;0.00;;;0.00;;
147;SDS011;142;50.652;12.216;2022-10-31T11:06:18;0.00;;;0.00;;
147;SDS011;142;50.652;12.216;2022-10-31T11:08:49;0.00;;;0.00;;
147;SDS011;142;50.652;12.216;2022-10-31T11:11:23;0.00;;;0.00;;
147;SDS011;142;50.652;12.216;2022-10-31T11:13:56;0.00;;;0.00;;
147;SDS011;142;50.652;12.216;2022-10-31T11:16:30;0.00;;;0.00;;
147;SDS011;142;50.652;12.216;2022-10-31T11:19:12;0.00;;;0.00;;
147;SDS011;142;50.652;12.216;2022-10-31T11:21:42;0.00;;;0.00;;
147;SDS011;142;50.652;12.216;2022-10-31T11:24:14;0.00;;;0.00;;
147;SDS011;142;50.652;12.216;2022-10-31T11:26:43;0.00;;;0.00;;
147;SDS011;142;50.652;12.216;2022-10-31T11:29:13;0.00;;;0.00;;
147;SDS011;142;50.652;12.216;2022-10-31T11:31:41;0.20;;;0.10;;
147;SDS011;142;50.652;12.216;2022-10-31T11:34:17;0.00;;;0.00;;
147;SDS011;142;50.652;12.216;2022-10-31T11:36:49;0.20;;;0.10;;
147;SDS011;142;50.652;12.216;2022-10-31T11:39:17;0.00;;;0.00;;
147;SDS011;142;50.652;12.216;2022-10-31T11:41:47;0.20;;;0.10;;
147;SDS011;142;50.652;12.216;2022-10-31T11:44:16;0.00;;;0.00;;
147;SDS011;142;50.652;12.216;2022-10-31T11:46:46;0.00;;;0.00;;
147;SDS011;142;50.652;12.216;2022-10-31T11:49:18;0.00;;;0.00;;
147;SDS011;142;50.652;12.216;2022-10-31T11:51:50;0.00;;;0.00;;
147;SDS011;142;50.652;12.216;2022-10-31T11:54:20;0.07;;;0.03;;
147;SDS011;142;50.652;12.216;2022-10-31T11:56:50;0.20;;;0.10;;
147;SDS011;142;50.652;12.216;2022-10-31T11:59:22;0.00;;;0.00;;
147;SDS011;142;50.652;12.216;2022-10-31T12:01:52;0.00;;;0.00;;
147;SDS011;142;50.652;12.216;2022-10-31T12:04:22;0.20;;;0.10;;
147;SDS011;142;50.652;12.216;2022-10-31T12:06:57;0.00;;;0.00;;
147;SDS011;142;50.652;12.216;2022-10-31T12:09:27;0.00;;;0.00;;
147;SDS011;142;50.652;12.216;2022-10-31T12:12:05;0.00;;;0.00;;
147;SDS011;142;50.652;12.216;2022-10-31T12:14:53;0.00;;;0.00;;
147;SDS011;142;50.652;12.216;2022-10-31T12:17:29;0.00;;;0.00;;
147;SDS011;142;50.652;12.216;2022-10-31T12:20:05;0.00;;;0.00;;
147;SDS011;142;50.652;12.216;2022-10-31T12:22:41;0.00;;;0.00;;
147;SDS011;142;50.652;12.216;2022-10-31T12:25:19;0.00;;;0.00;;
147;SDS011;142;50.652;12.216;2022-10-31T12:30:54;0.00;;;0.00;;
147;SDS011;142;50.652;12.216;2022-10-31T12:36:29;0.00;;;0.00;;
147;SDS011;142;50.652;12.216;2022-10-31T12:41:52;0.00;;;0.00;;
147;SDS011;142;50.652;12.216;2022-10-31T12:44:29;0.00;;;0.00;;
147;SDS011;142;50.652;12.216;2022-10-31T12:47:12;0.00;;;0.00;;
147;SDS011;142;50.652;12.216;2022-10-31T12:49:59;0.00;;;0.00;;
147;SDS011;142;50.652;12.216;2022-10-31T12:52:42;0.00;;;0.00;;
147;SDS011;142;50.652;12.216;2022-10-31T12:55:25;0.00;;;0.00;;
147;SDS011;142;50.652;12.216;2022-10-31T12:58:14;0.00;;;0.00;;
147;SDS011;142;50.652;12.216;2022-10-31T13:00:46;0.00;;;0.00;;
147;SDS011;142;50.652;12.216;2022-10-31T13:03:26;0.20;;;0.10;;
147;SDS011;142;50.652;12.216;2022-10-31T13:06:03;0.00;;;0.00;;
147;SDS011;142;50.652;12.216;2022-10-31T13:08:36;0.00;;;0.00;;
147;SDS011;142;50.652;12.216;2022-10-31T13:11:08;0.20;;;0.10;;
147;SDS011;142;50.652;12.216;2022-10-31T13:13:39;0.20;;;0.10;;
147;SDS011;142;50.652;12.216;2022-10-31T13:16:10;0.00;;;0.00;;
147;SDS011;142;50.652;12.216;2022-10-31T13:18:42;0.20;;;0.10;;
147;SDS011;142;50.652;12.216;2022-10-31T13:21:23;0.00;;;0.00;;
147;SDS011;142;50.652;12.216;2022-10-31T13:23:53;0.00;;;0.00;;
147;SDS011;142;50.652;12.216;2022-10-31T13:26:30;0.00;;;0.00;;
147;SDS011;142;50.652;12.216;2022-10-31T13:29:05;0.00;;;0.00;;
147;SDS011;142;50.652;12.216;2022-10-31T13:31:41;0.07;;;0.03;;
147;SDS011;142;50.652;12.216;2022-10-31T13:34:10;0.00;;;0.00;;
147;SDS011;142;50.652;12.216;2022-10-31T13:36:51;0.00;;;0.00;;
147;SDS011;142;50.652;12.216;2022-10-31T13:39:34;0.00;;;0.00;;
147;SDS011;142;50.652;12.216;2022-10-31T13:42:17;0.00;;;0.00;;
147;SDS011;142;50.652;12.216;2022-10-31T13:44:50;0.00;;;0.00;;
147;SDS011;142;50.652;12.216;2022-10-31T13:47:20;0.00;;;0.00;;
147;SDS011;142;50.652;12.216;2022-10-31T13:50:02;0.00;;;0.00;;
147;SDS011;142;50.652;12.216;2022-10-31T13:52:31;0.00;;;0.00;;
147;SDS011;142;50.652;12.216;2022-10-31T13:54:59;0.00;;;0.00;;
147;SDS011;142;50.652;12.216;2022-10-31T13:57:29;0.20;;;0.10;;
147;SDS011;142;50.652;12.216;2022-10-31T13:59:58;0.00;;;0.00;;
147;SDS011;142;50.652;12.216;2022-10-31T14:02:30;0.00;;;0.00;;
147;SDS011;142;50.652;12.216;2022-10-31T14:04:59;0.20;;;0.10;;
147;SDS011;142;50.652;12.216;2022-10-31T14:07:29;0.20;;;0.10;;
147;SDS011;142;50.652;12.216;2022-10-31T14:10:00;0.00;;;0.00;;
147;SDS011;142;50.652;12.216;2022-10-31T14:12:31;0.00;;;0.00;;
147;SDS011;142;50.652;12.216;2022-10-31T14:15:04;0.00;;;0.00;;
147;SDS011;142;50.652;12.216;2022-10-31T14:17:47;0.00;;;0.00;;
147;SDS011;142;50.652;12.216;2022-10-31T14:20:21;0.00;;;0.00;;
147;SDS011;142;50.652;12.216;2022-10-31T14:22:51;0.00;;;0.00;;
147;SDS011;142;50.652;12.216;2022-10-31T14:25:27;0.00;;;0.00;;
147;SDS011;142;50.652;12.216;2022-10-31T14:27:56;0.00;;;0.00;;
147;SDS011;142;50.652;12.216;2022-10-31T14:30:24;0.00;;;0.00;;
147;SDS011;142;50.652;12.216;2022-10-31T14:32:53;0.00;;;0.00;;
147;SDS011;142;50.652;12.216;2022-10-31T14:35:24;0.00;;;0.00;;
147;SDS011;142;50.652;12.216;2022-10-31T14:38:02;0.00;;;0.00;;
147;SDS011;142;50.652;12.216;2022-10-31T14:40:42;0.00;;;0.00;;
147;SDS011;142;50.652;12.216;2022-10-31T14:43:31;0.13;;;0.07;;
147;SDS011;142;50.652;12.216;2022-10-31T14:46:14;0.00;;;0.00;;
147;SDS011;142;50.652;12.216;2022-10-31T14:49:01;0.00;;;0.00;;
147;SDS011;142;50.652;12.216;2022-10-31T14:51:42;0.20;;;0.10;;
147;SDS011;142;50.652;12.216;2022-10-31T14:54:12;0.00;;;0.00;;
147;SDS011;142;50.652;12.216;2022-10-31T14:56:46;0.00;;;0.00;;
147;SDS011;142;50.652;12.216;2022-10-31T14:59:16;0.00;;;0.00;;
147;SDS011;142;50.652;12.216;2022-10-31T15:01:51;0.00;;;0.00;;
147;SDS011;142;50.652;12.216;2022-10-31T15:04:24;0.00;;;0.00;;
147;SDS011;142;50.652;12.216;2022-10-31T15:07:04;0.00;;;0.00;;
147;SDS011;142;50.652;12.216;2022-10-31T15:09:36;0.00;;;0.00;;
147;SDS011;142;50.652;12.216;2022-10-31T15:12:21;0.27;;;0.17;;
147;SDS011;142;50.652;12.216;2022-10-31T15:14:49;0.00;;;0.00;;
147;SDS011;142;50.652;12.216;2022-10-31T15:17:17;0.00;;;0.00;;
147;SDS011;142;50.652;12.216;2022-10-31T15:19:44;0.00;;;0.00;;
147;SDS011;142;50.652;12.216;2022-10-31T15:22:13;0.00;;;0.00;;
147;SDS011;142;50.652;12.216;2022-10-31T15:24:42;0.00;;;0.00;;
147;SDS011;142;50.652;12.216;2022-10-31T15:27:10;0.00;;;0.00;;
147;SDS011;142;50.652;12.216;2022-10-31T15:29:48;0.07;;;0.03;;
147;SDS011;142;50.652;12.216;2022-10-31T15:32:18;0.00;;;0.00;;
147;SDS011;142;50.652;12.216;2022-10-31T15:34:47;0.20;;;0.10;;
147;SDS011;142;50.652;12.216;2022-10-31T15:37:16;0.00;;;0.00;;
147;SDS011;142;50.652;12.216;2022-10-31T15:39:45;0.20;;;0.10;;
147;SDS011;142;50.652;12.216;2022-10-31T15:42:14;0.20;;;0.10;;
147;SDS011;142;50.652;12.216;2022-10-31T15:44:48;0.00;;;0.00;;
147;SDS011;142;50.652;12.216;2022-10-31T15:47:18;0.00;;;0.00;;
147;SDS011;142;50.652;12.216;2022-10-31T15:49:47;0.30;;;0.20;;
147;SDS011;142;50.652;12.216;2022-10-31T15:52:18;0.07;;;0.03;;
147;SDS011;142;50.652;12.216;2022-10-31T15:54:53;0.20;;;0.10;;
147;SDS011;142;50.652;12.216;2022-10-31T15:57:23;0.20;;;0.10;;
147;SDS011;142;50.652;12.216;2022-10-31T15:59:52;0.20;;;0.10;;
147;SDS011;142;50.652;12.216;2022-10-31T16:02:21;0.07;;;0.03;;